createdAt,value
2022-09-24T00:01:42.483Z,4.70
2022-09-24T00:04:12.867Z,5.05
2022-09-24T00:06:42.705Z,4.82
2022-09-24T00:09:11.518Z,5.28
2022-09-24T00:11:40.251Z,5.28
2022-09-24T00:14:08.388Z,5.20
2022-09-24T00:16:39.934Z,5.13
2022-09-24T00:19:07.802Z,4.78
2022-09-24T00:21:37.663Z,4.72
2022-09-24T00:24:07.758Z,4.88
2022-09-24T00:26:49.970Z,4.88
2022-09-24T00:29:19.504Z,4.40
2022-09-24T00:31:49.672Z,4.63
2022-09-24T00:34:17.680Z,4.63
2022-09-24T00:36:46.206Z,4.38
2022-09-24T00:39:14.536Z,4.82
2022-09-24T00:41:48.022Z,4.35
2022-09-24T00:44:48.197Z,4.90
2022-09-24T00:47:32.084Z,4.38
2022-09-24T00:50:08.586Z,4.15
2022-09-24T00:52:41.198Z,4.55
2022-09-24T00:55:10.396Z,4.03
2022-09-24T00:57:39.584Z,4.40
2022-09-24T01:00:08.697Z,4.47
2022-09-24T01:02:40.215Z,4.60
2022-09-24T01:05:10.230Z,4.22
2022-09-24T01:07:38.252Z,4.03
2022-09-24T01:10:06.966Z,4.35
2022-09-24T01:12:45.159Z,4.60
2022-09-24T01:15:21.636Z,4.53
2022-09-24T01:18:01.292Z,4.50
2022-09-24T01:20:54.283Z,4.10
2022-09-24T01:23:56.648Z,4.22
2022-09-24T01:26:48.866Z,4.13
2022-09-24T01:29:42.098Z,4.40
2022-09-24T01:32:18.311Z,4.65
2022-09-24T01:34:51.156Z,4.45
2022-09-24T01:37:23.133Z,4.28
2022-09-24T01:39:53.224Z,4.20
2022-09-24T01:42:23.037Z,4.22
2022-09-24T01:44:52.663Z,3.80
2022-09-24T01:47:33.505Z,3.80
2022-09-24T01:50:03.655Z,4.45
2022-09-24T01:52:35.911Z,3.83
2022-09-24T01:55:06.495Z,4.18
2022-09-24T01:57:39.928Z,4.25
2022-09-24T02:02:47.158Z,3.78
2022-09-24T02:05:22.822Z,4.30
2022-09-24T02:07:58.424Z,3.78
2022-09-24T02:10:29.862Z,4.45
2022-09-24T02:13:03.741Z,3.78
2022-09-24T02:15:35.067Z,4.10
2022-09-24T02:18:07.478Z,4.30
2022-09-24T02:20:37.028Z,4.13
2022-09-24T02:23:07.090Z,3.92
2022-09-24T02:25:39.940Z,3.60
2022-09-24T02:28:08.260Z,4.30
2022-09-24T02:30:42.914Z,3.95
2022-09-24T02:33:27.796Z,3.50
2022-09-24T02:35:55.757Z,4.60
2022-09-24T02:38:24.128Z,4.10
2022-09-24T02:40:52.596Z,3.75
2022-09-24T02:43:20.569Z,3.70
2022-09-24T02:45:49.724Z,3.50
2022-09-24T02:48:17.669Z,3.90
2022-09-24T02:50:45.494Z,3.85
2022-09-24T02:53:13.494Z,3.83
2022-09-24T02:55:41.313Z,4.03
2022-09-24T02:58:09.138Z,3.80
2022-09-24T03:00:36.982Z,4.13
2022-09-24T03:03:06.223Z,3.45
2022-09-24T03:05:34.130Z,3.80
2022-09-24T03:08:02.339Z,3.78
2022-09-24T03:10:30.176Z,3.40
2022-09-24T03:12:58.179Z,3.88
2022-09-24T03:15:26.077Z,3.60
2022-09-24T03:17:55.060Z,3.72
2022-09-24T03:20:24.309Z,3.40
2022-09-24T03:22:52.421Z,3.53
2022-09-24T03:25:20.499Z,3.72
2022-09-24T03:27:48.477Z,3.45
2022-09-24T03:30:34.146Z,3.55
2022-09-24T03:33:02.007Z,3.97
2022-09-24T03:35:31.158Z,3.65
2022-09-24T03:37:59.003Z,3.75
2022-09-24T03:40:26.958Z,4.00
2022-09-24T03:42:54.861Z,3.65
2022-09-24T03:45:22.662Z,3.60
2022-09-24T03:47:50.487Z,3.47
2022-09-24T03:50:18.446Z,3.65
2022-09-24T03:52:47.694Z,3.50
2022-09-24T03:55:15.621Z,3.17
2022-09-24T03:57:43.427Z,3.20
2022-09-24T04:00:12.645Z,3.53
2022-09-24T04:02:40.694Z,3.53
2022-09-24T04:05:09.174Z,3.50
2022-09-24T04:07:36.989Z,3.55
2022-09-24T04:10:07.037Z,3.53
2022-09-24T04:12:34.854Z,3.50
2022-09-24T04:15:03.392Z,3.80
2022-09-24T04:17:31.490Z,3.33
2022-09-24T04:19:59.410Z,3.58
2022-09-24T04:22:29.061Z,3.92
2022-09-24T04:24:57.852Z,4.00
2022-09-24T04:27:27.097Z,3.58
2022-09-24T04:29:55.184Z,3.90
2022-09-24T04:32:23.061Z,2.97
2022-09-24T04:34:50.909Z,3.75
2022-09-24T04:37:18.747Z,3.60
2022-09-24T04:39:46.588Z,3.67
2022-09-24T04:42:18.046Z,3.47
2022-09-24T04:44:48.839Z,3.22
2022-09-24T04:47:19.190Z,3.22
2022-09-24T04:49:46.997Z,3.65
2022-09-24T04:52:16.088Z,3.42
2022-09-24T04:54:47.231Z,3.63
2022-09-24T04:57:15.989Z,3.72
2022-09-24T04:59:44.309Z,3.45
2022-09-24T05:02:13.501Z,3.88
2022-09-24T05:04:41.417Z,4.00
2022-09-24T05:07:09.247Z,3.63
2022-09-24T05:09:37.141Z,3.75
2022-09-24T05:12:06.199Z,3.50
2022-09-24T05:14:34.033Z,3.45
2022-09-24T05:17:01.859Z,3.35
2022-09-24T05:19:31.011Z,3.88
2022-09-24T05:21:58.892Z,3.22
2022-09-24T05:24:26.719Z,3.97
2022-09-24T05:27:10.257Z,3.50
2022-09-24T05:29:39.444Z,3.17
2022-09-24T05:32:08.898Z,3.72
2022-09-24T05:34:38.087Z,3.60
2022-09-24T05:37:06.133Z,3.20
2022-09-24T05:39:34.495Z,3.42
2022-09-24T05:42:04.241Z,3.42
2022-09-24T05:44:32.301Z,3.40
2022-09-24T05:47:00.412Z,3.60
2022-09-24T05:49:28.289Z,3.42
2022-09-24T05:51:57.462Z,3.35
2022-09-24T05:54:25.315Z,3.33
2022-09-24T05:56:53.162Z,3.20
2022-09-24T05:59:21.078Z,3.80
2022-09-24T06:01:49.135Z,3.38
2022-09-24T06:04:17.419Z,2.92
2022-09-24T06:06:45.252Z,3.33
2022-09-24T06:09:14.630Z,3.40
2022-09-24T06:11:42.516Z,3.35
2022-09-24T06:14:11.225Z,3.35
2022-09-24T06:16:39.137Z,3.40
2022-09-24T06:19:07.177Z,3.08
2022-09-24T06:21:35.033Z,3.20
2022-09-24T06:24:03.224Z,3.00
2022-09-24T06:26:33.100Z,3.65
2022-09-24T06:29:04.963Z,3.72
2022-09-24T06:31:34.665Z,3.47
2022-09-24T06:34:03.581Z,3.28
2022-09-24T06:36:31.456Z,3.00
2022-09-24T06:38:59.541Z,3.03
2022-09-24T06:41:27.447Z,3.30
2022-09-24T06:43:57.240Z,2.88
2022-09-24T06:46:25.866Z,3.13
2022-09-24T06:48:54.862Z,3.60
2022-09-24T06:51:22.704Z,3.22
2022-09-24T06:53:52.514Z,3.90
2022-09-24T06:56:20.499Z,3.38
2022-09-24T06:58:48.345Z,3.58
2022-09-24T07:01:17.641Z,3.30
2022-09-24T07:03:45.524Z,3.70
2022-09-24T07:06:15.764Z,3.17
2022-09-24T07:08:44.901Z,3.28
2022-09-24T07:11:15.812Z,3.20
2022-09-24T07:13:43.653Z,2.80
2022-09-24T07:16:11.493Z,3.38
2022-09-24T07:18:40.714Z,3.40
2022-09-24T07:21:08.519Z,3.40
2022-09-24T07:23:36.354Z,3.28
2022-09-24T07:26:04.181Z,3.60
2022-09-24T07:28:32.070Z,3.10
2022-09-24T07:31:01.035Z,3.35
2022-09-24T07:33:29.222Z,2.80
2022-09-24T07:35:58.426Z,3.22
2022-09-24T07:38:26.931Z,3.00
2022-09-24T07:40:58.950Z,3.03
2022-09-24T07:43:28.541Z,2.80
2022-09-24T07:45:56.808Z,3.25
2022-09-24T07:48:24.687Z,2.92
2022-09-24T07:50:52.560Z,3.13
2022-09-24T07:53:22.342Z,2.85
2022-09-24T07:55:50.200Z,3.35
2022-09-24T07:58:18.744Z,3.00
2022-09-24T08:00:46.907Z,3.30
2022-09-24T08:03:16.277Z,3.65
2022-09-24T08:05:46.056Z,3.38
2022-09-24T08:08:14.609Z,2.83
2022-09-24T08:10:43.964Z,2.97
2022-09-24T08:13:12.141Z,2.60
2022-09-24T08:15:40.220Z,3.63
2022-09-24T08:18:08.138Z,3.63
2022-09-24T08:20:38.169Z,3.25
2022-09-24T08:23:07.877Z,3.10
2022-09-24T08:25:35.714Z,3.58
2022-09-24T08:28:05.799Z,4.38
2022-09-24T08:30:34.640Z,4.35
2022-09-24T08:33:03.937Z,3.42
2022-09-24T08:35:31.827Z,3.17
2022-09-24T08:38:01.205Z,3.20
2022-09-24T08:40:32.324Z,3.05
2022-09-24T08:43:10.751Z,3.20
2022-09-24T08:46:03.160Z,2.85
2022-09-24T08:48:35.338Z,2.90
2022-09-24T08:51:09.477Z,3.22
2022-09-24T08:53:46.157Z,2.47
2022-09-24T08:56:14.681Z,2.75
2022-09-24T08:58:49.838Z,3.53
2022-09-24T09:01:27.958Z,3.20
2022-09-24T09:04:03.436Z,3.63
2022-09-24T09:06:54.543Z,4.40
2022-09-24T09:09:24.958Z,5.95
2022-09-24T09:11:58.991Z,4.32
2022-09-24T09:14:41.938Z,3.50
2022-09-24T09:17:20.176Z,3.35
2022-09-24T09:19:55.185Z,3.13
2022-09-24T09:22:27.290Z,3.30
2022-09-24T09:25:03.879Z,3.13
2022-09-24T09:27:32.825Z,3.28
2022-09-24T09:30:09.166Z,3.33
2022-09-24T09:32:54.104Z,3.22
2022-09-24T09:35:30.612Z,3.10
2022-09-24T09:38:06.481Z,3.05
2022-09-24T09:40:40.494Z,3.17
2022-09-24T09:43:11.057Z,3.40
2022-09-24T09:45:47.663Z,3.55
2022-09-24T09:48:16.492Z,2.72
2022-09-24T09:50:47.533Z,2.88
2022-09-24T09:53:24.105Z,2.90
2022-09-24T09:55:54.323Z,2.72
2022-09-24T09:58:25.178Z,2.80
2022-09-24T10:01:03.833Z,2.70
2022-09-24T10:03:34.309Z,2.63
2022-09-24T10:06:04.149Z,2.47
2022-09-24T10:08:32.450Z,2.70
2022-09-24T10:11:01.955Z,2.60
2022-09-24T10:13:31.627Z,2.95
2022-09-24T10:16:03.665Z,2.85
2022-09-24T10:18:34.435Z,2.92
2022-09-24T10:21:05.117Z,3.10
2022-09-24T10:23:37.424Z,3.40
2022-09-24T10:26:06.221Z,3.00
2022-09-24T10:28:53.828Z,3.17
2022-09-24T10:31:25.074Z,3.20
2022-09-24T10:33:56.699Z,3.22
2022-09-24T10:39:15.518Z,3.58
2022-09-24T10:41:47.958Z,3.25
2022-09-24T10:44:17.018Z,3.63
2022-09-24T10:47:16.418Z,3.38
2022-09-24T10:50:04.057Z,3.50
2022-09-24T10:52:45.293Z,3.20
2022-09-24T10:55:26.711Z,3.63
2022-09-24T10:58:03.876Z,3.50
2022-09-24T11:00:39.834Z,5.20
2022-09-24T11:03:32.321Z,4.15
2022-09-24T11:06:03.437Z,3.78
2022-09-24T11:08:52.229Z,3.65
2022-09-24T11:11:31.248Z,3.75
2022-09-24T11:14:13.206Z,3.80
2022-09-24T11:17:32.253Z,4.15
2022-09-24T11:20:28.788Z,3.80
2022-09-24T11:23:17.649Z,4.50
2022-09-24T11:25:53.866Z,4.10
2022-09-24T11:28:36.023Z,4.18
2022-09-24T11:31:13.214Z,4.50
2022-09-24T11:34:08.525Z,4.70
2022-09-24T11:36:52.609Z,4.50
2022-09-24T11:39:32.487Z,4.40
2022-09-24T11:42:07.290Z,4.88
2022-09-24T11:45:04.008Z,4.50
2022-09-24T11:47:47.973Z,4.40
2022-09-24T11:50:30.560Z,4.63
2022-09-24T11:53:06.781Z,4.55
2022-09-24T11:55:39.168Z,4.78
2022-09-24T11:58:16.664Z,4.40
2022-09-24T12:00:52.056Z,4.53
2022-09-24T12:03:26.327Z,4.57
2022-09-24T12:06:01.487Z,4.90
2022-09-24T12:08:38.121Z,4.85
2022-09-24T12:11:12.666Z,4.97
2022-09-24T12:13:43.738Z,4.53
2022-09-24T12:16:14.259Z,4.57
2022-09-24T12:18:51.328Z,4.78
2022-09-24T12:21:24.952Z,4.60
2022-09-24T12:24:18.858Z,5.07
2022-09-24T12:26:46.200Z,4.68
2022-09-24T12:29:54.000Z,5.00
2022-09-24T12:32:44.890Z,4.40
2022-09-24T12:35:23.055Z,4.65
2022-09-24T12:37:56.128Z,4.90
2022-09-24T12:40:50.348Z,4.70
2022-09-24T12:43:26.107Z,4.97
2022-09-24T12:46:00.883Z,5.07
2022-09-24T12:48:30.317Z,5.13
2022-09-24T12:51:00.764Z,4.50
2022-09-24T12:53:35.247Z,5.18
2022-09-24T12:56:06.889Z,5.88
2022-09-24T12:58:39.543Z,5.68
2022-09-24T13:01:13.425Z,6.55
2022-09-24T13:03:48.787Z,6.25
2022-09-24T13:06:31.287Z,5.72
2022-09-24T13:08:59.225Z,4.80
2022-09-24T13:11:31.324Z,4.72
2022-09-24T13:14:02.481Z,5.22
2022-09-24T13:16:32.185Z,5.47
2022-09-24T13:19:02.753Z,4.88
2022-09-24T13:21:32.050Z,4.68
2022-09-24T13:23:59.969Z,4.55
2022-09-24T13:26:33.699Z,4.43
2022-09-24T13:29:03.254Z,4.40
2022-09-24T13:31:41.718Z,4.03
2022-09-24T13:34:20.836Z,4.38
2022-09-24T13:36:53.787Z,4.05
2022-09-24T13:39:25.012Z,3.70
2022-09-24T13:42:01.874Z,4.30
2022-09-24T13:44:34.335Z,4.10
2022-09-24T13:47:14.307Z,4.20
2022-09-24T13:49:45.478Z,4.50
2022-09-24T13:52:22.554Z,4.20
2022-09-24T13:54:54.497Z,4.28
2022-09-24T13:57:26.132Z,4.40
2022-09-24T14:00:15.497Z,4.60
2022-09-24T14:02:52.389Z,4.15
2022-09-24T14:05:21.664Z,6.15
2022-09-24T14:07:59.415Z,4.03
2022-09-24T14:10:27.531Z,4.13
2022-09-24T14:13:10.646Z,4.85
2022-09-24T14:15:38.597Z,4.05
2022-09-24T14:18:12.105Z,4.25
2022-09-24T14:20:40.947Z,4.22
2022-09-24T14:23:18.691Z,3.95
2022-09-24T14:25:49.485Z,4.53
2022-09-24T14:28:19.515Z,4.10
2022-09-24T14:30:53.358Z,4.20
2022-09-24T14:33:25.749Z,4.30
2022-09-24T14:35:55.289Z,4.20
2022-09-24T14:38:26.329Z,4.38
2022-09-24T14:40:59.666Z,4.47
2022-09-24T14:46:05.148Z,3.97
2022-09-24T14:48:34.611Z,4.00
2022-09-24T14:51:03.002Z,3.95
2022-09-24T14:53:34.600Z,4.32
2022-09-24T14:56:08.244Z,4.05
2022-09-24T14:58:37.953Z,4.15
2022-09-24T15:01:14.028Z,4.40
2022-09-24T15:03:44.807Z,4.40
2022-09-24T15:06:21.324Z,4.60
2022-09-24T15:09:00.516Z,4.38
2022-09-24T15:11:31.401Z,4.90
2022-09-24T15:14:02.964Z,5.03
2022-09-24T15:16:33.991Z,4.90
2022-09-24T15:19:19.590Z,5.18
2022-09-24T15:21:48.440Z,4.97
2022-09-24T15:24:16.597Z,5.45
2022-09-24T15:26:46.973Z,5.43
2022-09-24T15:29:23.897Z,5.28
2022-09-24T15:31:51.966Z,5.38
2022-09-24T15:34:20.643Z,5.63
2022-09-24T15:36:49.410Z,4.97
2022-09-24T15:39:24.180Z,5.75
2022-09-24T15:41:52.005Z,5.25
2022-09-24T15:44:23.715Z,5.68
2022-09-24T15:46:52.292Z,5.45
2022-09-24T15:49:23.727Z,5.13
2022-09-24T15:51:54.384Z,5.93
2022-09-24T15:54:24.653Z,5.70
2022-09-24T15:56:53.608Z,5.50
2022-09-24T15:59:23.720Z,5.88
2022-09-24T16:01:54.187Z,6.28
2022-09-24T16:04:22.178Z,5.93
2022-09-24T16:06:50.531Z,6.20
2022-09-24T16:09:18.390Z,7.38
2022-09-24T16:11:46.771Z,7.53
2022-09-24T16:14:14.654Z,7.80
2022-09-24T16:16:43.814Z,7.68
2022-09-24T16:19:12.422Z,8.40
2022-09-24T16:21:40.557Z,7.75
2022-09-24T16:24:08.394Z,8.68
2022-09-24T16:26:37.327Z,8.20
2022-09-24T16:29:05.995Z,8.93
2022-09-24T16:31:34.146Z,8.70
2022-09-24T16:34:03.357Z,9.05
2022-09-24T16:36:31.530Z,8.70
2022-09-24T16:39:00.091Z,8.85
2022-09-24T16:41:30.755Z,9.00
2022-09-24T16:43:58.677Z,9.07
2022-09-24T16:46:26.611Z,9.38
2022-09-24T16:48:54.688Z,9.38
2022-09-24T16:51:23.959Z,10.23
2022-09-24T16:53:55.295Z,9.70
2022-09-24T16:56:23.457Z,8.90
2022-09-24T16:58:52.462Z,9.73
2022-09-24T17:01:22.187Z,10.10
2022-09-24T17:03:52.426Z,11.50
2022-09-24T17:06:21.237Z,11.13
2022-09-24T17:09:08.714Z,11.23
2022-09-24T17:11:36.923Z,12.45
2022-09-24T17:14:05.380Z,12.93
2022-09-24T17:16:33.585Z,13.55
2022-09-24T17:19:01.673Z,13.98
2022-09-24T17:21:29.623Z,14.38
2022-09-24T17:23:58.809Z,14.18
2022-09-24T17:26:26.766Z,14.35
2022-09-24T17:28:55.396Z,15.00
2022-09-24T17:31:25.430Z,15.43
2022-09-24T17:33:57.104Z,14.82
2022-09-24T17:36:25.858Z,14.23
2022-09-24T17:38:54.270Z,15.25
2022-09-24T17:41:24.197Z,16.48
2022-09-24T17:43:52.883Z,16.13
2022-09-24T17:46:22.563Z,17.13
2022-09-24T17:48:52.585Z,15.73
2022-09-24T17:51:22.623Z,17.50
2022-09-24T17:53:51.618Z,16.50
2022-09-24T17:56:20.460Z,17.05
2022-09-24T17:58:49.918Z,16.92
2022-09-24T18:01:19.883Z,16.35
2022-09-24T18:03:49.532Z,16.15
2022-09-24T18:06:17.483Z,16.95
2022-09-24T18:08:46.988Z,16.95
2022-09-24T18:11:17.364Z,18.05
2022-09-24T18:13:45.865Z,19.02
2022-09-24T18:16:17.196Z,18.85
2022-09-24T18:18:45.493Z,19.88
2022-09-24T18:21:15.326Z,18.08
2022-09-24T18:23:43.378Z,19.27
2022-09-24T18:26:13.143Z,18.52
2022-09-24T18:28:42.165Z,20.40
2022-09-24T18:31:11.131Z,19.85
2022-09-24T18:33:42.398Z,18.88
2022-09-24T18:36:12.833Z,19.05
2022-09-24T18:38:40.836Z,18.92
2022-09-24T18:41:10.639Z,18.60
2022-09-24T18:43:38.765Z,19.48
2022-09-24T18:46:08.713Z,19.13
2022-09-24T18:48:36.798Z,18.50
2022-09-24T18:51:07.335Z,18.67
2022-09-24T18:53:35.356Z,18.75
2022-09-24T18:56:06.956Z,18.48
2022-09-24T18:58:35.017Z,19.38
2022-09-24T19:01:04.450Z,18.88
2022-09-24T19:03:32.551Z,19.67
2022-09-24T19:06:02.571Z,19.73
2022-09-24T19:08:32.183Z,19.85
2022-09-24T19:11:04.802Z,19.88
2022-09-24T19:13:32.718Z,19.83
2022-09-24T19:16:05.646Z,19.13
2022-09-24T19:18:34.380Z,19.52
2022-09-24T19:21:03.600Z,20.05
2022-09-24T19:23:33.234Z,20.25
2022-09-24T19:26:02.536Z,20.75
2022-09-24T19:28:30.674Z,19.98
2022-09-24T19:30:58.850Z,21.45
2022-09-24T19:33:26.833Z,20.58
2022-09-24T19:35:56.556Z,22.40
2022-09-24T19:38:26.067Z,23.92
2022-09-24T19:41:02.001Z,22.50
2022-09-24T19:43:31.034Z,21.58
2022-09-24T19:46:00.667Z,20.95
2022-09-24T19:48:30.056Z,21.83
2022-09-24T19:51:01.174Z,20.58
2022-09-24T19:53:31.307Z,22.08
2022-09-24T19:56:00.915Z,20.92
2022-09-24T19:58:28.997Z,21.45
2022-09-24T20:01:01.549Z,21.08
2022-09-24T20:03:29.619Z,22.83
2022-09-24T20:05:57.461Z,24.45
2022-09-24T20:08:25.479Z,24.52
2022-09-24T20:10:53.461Z,22.42
2022-09-24T20:13:22.661Z,23.08
2022-09-24T20:15:58.738Z,21.92
2022-09-24T20:18:26.917Z,20.05
2022-09-24T20:20:55.256Z,18.55
2022-09-24T20:23:24.447Z,19.40
2022-09-24T20:26:10.375Z,17.63
2022-09-24T20:28:40.081Z,17.10
2022-09-24T20:31:10.925Z,14.98
2022-09-24T20:33:41.069Z,15.75
2022-09-24T20:36:15.456Z,14.55
2022-09-24T20:38:47.235Z,14.55
2022-09-24T20:41:16.784Z,13.07
2022-09-24T20:43:46.329Z,12.85
2022-09-24T20:46:17.495Z,11.82
2022-09-24T20:48:45.617Z,13.15
2022-09-24T20:51:17.502Z,12.00
2022-09-24T20:53:45.762Z,12.05
2022-09-24T20:56:17.056Z,11.93
2022-09-24T20:58:49.171Z,11.02
2022-09-24T21:01:17.531Z,9.70
2022-09-24T21:03:46.211Z,9.05
2022-09-24T21:06:16.561Z,9.43
2022-09-24T21:08:45.920Z,9.07
2022-09-24T21:11:15.973Z,9.10
2022-09-24T21:13:49.979Z,8.82
2022-09-24T21:16:20.567Z,8.70
2022-09-24T21:18:49.603Z,8.88
2022-09-24T21:21:19.388Z,8.55
2022-09-24T21:23:49.276Z,8.35
2022-09-24T21:26:18.938Z,9.05
2022-09-24T21:28:50.479Z,8.50
2022-09-24T21:31:20.951Z,8.32
2022-09-24T21:33:52.483Z,7.40
2022-09-24T21:36:21.947Z,7.97
2022-09-24T21:38:54.999Z,8.00
2022-09-24T21:41:23.454Z,8.13
2022-09-24T21:43:53.449Z,7.40
2022-09-24T21:46:21.547Z,8.30
2022-09-24T21:48:49.550Z,8.50
2022-09-24T21:51:21.495Z,8.82
2022-09-24T21:53:49.854Z,8.65
2022-09-24T21:56:18.718Z,8.18
2022-09-24T21:58:46.814Z,8.68
2022-09-24T22:01:18.749Z,8.88
2022-09-24T22:03:47.394Z,8.50
2022-09-24T22:06:15.485Z,8.32
2022-09-24T22:08:45.419Z,8.05
2022-09-24T22:11:13.820Z,7.55
2022-09-24T22:13:42.455Z,8.02
2022-09-24T22:16:12.468Z,8.35
2022-09-24T22:18:41.765Z,8.45
2022-09-24T22:21:11.448Z,8.48
2022-09-24T22:23:39.850Z,8.25
2022-09-24T22:26:09.007Z,8.50
2022-09-24T22:28:37.892Z,8.80
2022-09-24T22:31:07.718Z,8.98
2022-09-24T22:33:53.611Z,8.85
2022-09-24T22:36:23.395Z,9.02
2022-09-24T22:38:52.912Z,8.00
2022-09-24T22:41:21.284Z,7.80
2022-09-24T22:43:49.244Z,7.78
2022-09-24T22:46:18.102Z,7.88
2022-09-24T22:48:47.351Z,8.05
2022-09-24T22:51:16.080Z,7.78
2022-09-24T22:53:45.505Z,8.10
2022-09-24T22:56:14.982Z,8.00
2022-09-24T22:58:45.036Z,7.82
2022-09-24T23:01:15.139Z,8.50
2022-09-24T23:03:44.116Z,7.13
2022-09-24T23:06:12.883Z,8.05
2022-09-24T23:08:42.350Z,8.07
2022-09-24T23:11:14.298Z,7.07
2022-09-24T23:13:43.972Z,7.82
2022-09-24T23:16:14.029Z,7.60
2022-09-24T23:18:43.544Z,7.13
2022-09-24T23:21:14.086Z,7.30
2022-09-24T23:23:42.298Z,6.50
2022-09-24T23:26:16.580Z,6.82
2022-09-24T23:28:45.966Z,6.57
2022-09-24T23:31:16.153Z,6.90
2022-09-24T23:33:44.358Z,6.20
2022-09-24T23:36:13.659Z,6.45
2022-09-24T23:38:41.805Z,5.32
2022-09-24T23:41:12.016Z,5.60
2022-09-24T23:43:41.126Z,6.07
2022-09-24T23:46:09.580Z,6.50
2022-09-24T23:48:37.577Z,5.97
2022-09-24T23:51:05.944Z,6.32
2022-09-24T23:53:34.643Z,5.25
2022-09-24T23:56:03.077Z,5.38
2022-09-24T23:58:32.338Z,6.07
